Terminal Aerodrome Forecast
Issued by NWS

Home | Current Version | Previous Version | Text Only | Print | Product List | Glossary On
Versions: 1 2 3 4 5 6 7 8 9 10 11 12 13 14 15
000
FTUS43 KIND 282300
TAFLAF
TAF
KLAF 282326Z 2900/2924 04003KT P6SM SKC
     FM290900 16008KT P6SM SCT100 BKN250
     FM291500 19016G24KT P6SM SCT100 OVC250
     FM291800 19018G28KT P6SM BKN050 OVC080
      TEMPO 2919/2923 5SM -RA
     FM292300 22015G23KT P6SM BKN025 OVC040
      AMD LTD TO CLD VIS AND WIND 2901/2913=

USA.gov is the U.S. government's official web portal to all federal, state and local government web resources and services.